Time;durP1;ratioP1;P1;durP2;ratioP2;P2;SDS_P1;SDS_P2;PMS_P1;PMS_P2;Temp;Humidity;BMP_temperature;BMP_pressure;BME280_temperature;BME280_humidity;BME280_pressure;Samples;Min_cycle;Max_cycle;Signal;HPM_P1;HPM_P2
2023/08/03 00:02:19;;;;;;;3.78;1.13;;;;;;;16.32;100.00;98661.47;4990053;28;20031;-90
2023/08/03 00:04:45;;;;;;;2.90;1.20;;;;;;;16.38;100.00;98662.41;4988257;28;20030;-91
2023/08/03 00:07:11;;;;;;;4.22;1.00;;;;;;;16.36;100.00;98666.94;4987923;28;20391;-90
2023/08/03 00:09:36;;;;;;;0.98;0.90;;;;;;;16.45;100.00;98652.81;4987179;28;20026;-91
2023/08/03 00:12:01;;;;;;;1.90;0.70;;;;;;;16.34;100.00;98658.97;4988756;28;20056;-90
2023/08/03 00:14:27;;;;;;;2.10;0.70;;;;;;;16.36;100.00;98656.44;4978155;28;20080;-91
2023/08/03 00:16:52;;;;;;;1.33;0.60;;;;;;;16.39;100.00;98652.66;4981363;28;20037;-91
2023/08/03 00:19:17;;;;;;;3.55;1.20;;;;;;;16.40;100.00;98662.72;4997009;28;20030;-91
2023/08/03 00:21:43;;;;;;;2.47;0.90;;;;;;;16.39;100.00;98658.31;4995580;28;20556;-91
2023/08/03 00:24:08;;;;;;;0.90;0.57;;;;;;;16.45;100.00;98655.66;4989211;28;20041;-92
2023/08/03 00:26:34;;;;;;;0.60;0.47;;;;;;;16.45;100.00;98659.25;4988797;28;20066;-90
2023/08/03 00:28:59;;;;;;;2.67;0.63;;;;;;;16.43;100.00;98653.28;4987939;28;20026;-91
2023/08/03 00:31:25;;;;;;;0.60;0.60;;;;;;;16.48;100.00;98659.56;4985327;28;20429;-91
2023/08/03 00:33:50;;;;;;;3.92;1.00;;;;;;;16.44;100.00;98646.41;4989949;28;20096;-91
2023/08/03 00:36:16;;;;;;;1.33;0.90;;;;;;;16.55;100.00;98659.22;4987844;28;20037;-92
2023/08/03 00:38:41;;;;;;;2.70;0.98;;;;;;;16.58;100.00;98653.44;4983970;28;20033;-91
2023/08/03 00:41:07;;;;;;;1.42;0.68;;;;;;;16.48;100.00;98632.09;4988420;28;20309;-91
2023/08/03 00:43:32;;;;;;;1.00;0.50;;;;;;;16.56;100.00;98652.34;4984083;28;20842;-91
2023/08/03 00:45:57;;;;;;;1.30;0.80;;;;;;;16.38;100.00;98639.81;4990521;28;20023;-91
2023/08/03 00:48:23;;;;;;;0.52;0.32;;;;;;;16.44;100.00;98654.88;4992535;28;20033;-91
2023/08/03 00:50:48;;;;;;;1.38;0.68;;;;;;;16.45;100.00;98650.78;4988542;28;20045;-91
2023/08/03 00:53:14;;;;;;;0.60;0.52;;;;;;;16.50;100.00;98654.22;4986344;28;20367;-91
2023/08/03 00:55:39;;;;;;;1.20;0.55;;;;;;;16.50;100.00;98660.66;4991302;28;20033;-89
2023/08/03 00:58:05;;;;;;;2.45;0.50;;;;;;;16.55;100.00;98659.22;4994141;28;20491;-90
2023/08/03 01:00:30;;;;;;;0.70;0.60;;;;;;;16.54;100.00;98671.78;4989152;28;20049;-90
2023/08/03 01:02:57;;;;;;;2.08;0.60;;;;;;;16.54;100.00;98672.56;4991964;28;20087;-90
2023/08/03 01:05:22;;;;;;;3.83;0.80;;;;;;;16.54;100.00;98666.16;4983363;28;20061;-90
2023/08/03 01:07:48;;;;;;;1.45;0.60;;;;;;;16.50;100.00;98676.81;5005224;28;20030;-90
2023/08/03 01:10:13;;;;;;;1.33;0.80;;;;;;;16.48;100.00;98679.34;4978366;28;20093;-90
2023/08/03 01:12:38;;;;;;;0.93;0.70;;;;;;;16.52;100.00;98682.78;4985728;28;20034;-91
2023/08/03 01:15:05;;;;;;;0.75;0.75;;;;;;;16.52;100.00;98679.97;4995879;28;20432;-90
2023/08/03 01:17:30;;;;;;;0.75;0.50;;;;;;;16.46;100.00;98688.25;4991837;28;20104;-91
2023/08/03 01:19:56;;;;;;;1.58;1.00;;;;;;;16.39;100.00;98677.31;4991860;28;20490;-92
2023/08/03 01:22:22;;;;;;;0.93;0.80;;;;;;;16.46;100.00;98694.72;4989935;28;20053;-90
2023/08/03 01:24:48;;;;;;;1.50;0.95;;;;;;;16.44;100.00;98690.78;4980101;28;20110;-90
2023/08/03 01:27:13;;;;;;;1.20;0.93;;;;;;;16.50;100.00;98688.88;4983157;28;20118;-91
2023/08/03 01:29:38;;;;;;;2.25;0.95;;;;;;;16.43;100.00;98700.50;4988361;28;20353;-90
2023/08/03 01:32:04;;;;;;;1.58;1.00;;;;;;;16.31;100.00;98702.22;4999696;28;20046;-90
2023/08/03 01:34:30;;;;;;;6.03;2.13;;;;;;;16.35;100.00;98702.84;4986315;28;20723;-89
2023/08/03 01:36:56;;;;;;;2.30;1.35;;;;;;;16.37;100.00;98694.69;4989099;28;20049;-90
2023/08/03 01:39:24;;;;;;;4.55;1.92;;;;;;;16.41;100.00;98709.44;4985454;28;20414;-89
2023/08/03 01:41:50;;;;;;;3.08;1.35;;;;;;;16.44;100.00;98708.53;4987144;28;20099;-92
2023/08/03 01:44:29;;;;;;;2.03;1.50;;;;;;;16.46;100.00;98708.84;4983306;28;20026;-91
2023/08/03 01:46:57;;;;;;;3.53;2.13;;;;;;;16.47;100.00;98712.44;4986195;28;20057;-92
2023/08/03 01:49:25;;;;;;;5.78;2.08;;;;;;;16.45;100.00;98718.53;4985991;28;20467;-93
2023/08/03 01:51:51;;;;;;;4.78;2.45;;;;;;;16.34;100.00;98701.31;4989956;28;20100;-91
2023/08/03 01:54:16;;;;;;;3.38;2.88;;;;;;;16.48;100.00;98722.47;4991624;28;20427;-92
2023/08/03 01:56:42;;;;;;;3.65;2.20;;;;;;;16.44;100.00;98719.81;4986143;28;20026;-90
2023/08/03 01:59:08;;;;;;;3.47;2.30;;;;;;;16.39;100.00;98728.91;4989730;28;20506;-91
2023/08/03 02:01:33;;;;;;;6.40;2.60;;;;;;;16.36;100.00;98718.56;4986787;28;20073;-90
2023/08/03 02:03:58;;;;;;;4.60;2.80;;;;;;;16.46;100.00;98722.97;4982377;28;20062;-90
2023/08/03 02:06:24;;;;;;;3.47;2.40;;;;;;;16.44;100.00;98731.13;4981369;28;20510;-90
2023/08/03 02:08:49;;;;;;;6.15;2.00;;;;;;;16.39;100.00;98725.31;4998257;28;20042;-91
2023/08/03 02:11:15;;;;;;;4.53;2.78;;;;;;;16.34;100.00;98709.78;4989493;28;20014;-90
2023/08/03 02:13:40;;;;;;;3.58;2.15;;;;;;;16.44;100.00;98735.94;4997598;28;20042;-90
2023/08/03 02:16:09;;;;;;;2.55;1.67;;;;;;;16.41;100.00;98748.97;4980048;28;20027;-89
2023/08/03 02:18:34;;;;;;;5.30;1.75;;;;;;;16.49;100.00;98748.69;4987035;28;20109;-90
2023/08/03 02:21:00;;;;;;;4.13;1.55;;;;;;;16.46;100.00;98762.50;4987211;28;20122;-89
2023/08/03 02:23:25;;;;;;;9.48;2.38;;;;;;;16.34;100.00;98754.94;4976105;28;20093;-90
2023/08/03 02:25:51;;;;;;;4.43;1.80;;;;;;;16.45;100.00;98766.56;4978029;28;20078;-89
2023/08/03 02:28:17;;;;;;;7.32;1.67;;;;;;;16.53;100.00;98766.22;4993999;28;20026;-89
2023/08/03 02:30:42;;;;;;;5.80;1.55;;;;;;;16.45;100.00;98772.19;4986567;28;20357;-90
2023/08/03 02:33:07;;;;;;;3.47;1.63;;;;;;;16.28;100.00;98764.50;4988277;28;20459;-89
2023/08/03 02:35:37;;;;;;;9.30;2.15;;;;;;;16.40;100.00;98781.31;4985534;28;20538;-88
2023/08/03 02:38:03;;;;;;;7.25;2.22;;;;;;;16.43;100.00;98790.88;4986637;28;20479;-89
2023/08/03 02:40:29;;;;;;;6.70;2.50;;;;;;;16.46;100.00;98784.28;4983660;28;20034;-89
2023/08/03 02:42:54;;;;;;;5.82;2.28;;;;;;;16.39;100.00;98778.94;4976386;28;20434;-88
2023/08/03 02:45:20;;;;;;;5.88;1.60;;;;;;;16.51;100.00;98799.81;4986233;28;20036;-89
2023/08/03 02:47:45;;;;;;;7.13;1.58;;;;;;;16.43;100.00;98791.66;4988185;28;20105;-89
2023/08/03 02:50:10;;;;;;;10.30;2.78;;;;;;;16.41;100.00;98799.81;4986375;28;20031;-88
2023/08/03 02:52:36;;;;;;;6.82;2.15;;;;;;;16.43;100.00;98814.25;4986590;28;20033;-88
2023/08/03 02:55:02;;;;;;;7.85;1.80;;;;;;;16.52;100.00;98809.84;4986174;28;20065;-89
2023/08/03 02:57:27;;;;;;;5.30;2.10;;;;;;;16.56;100.00;98816.91;4987850;28;20018;-88
2023/08/03 02:59:52;;;;;;;4.43;1.70;;;;;;;16.52;100.00;98821.94;4988153;28;20032;-89
2023/08/03 03:02:18;;;;;;;4.65;1.65;;;;;;;16.46;100.00;98818.97;4988785;28;20070;-88
2023/08/03 03:04:43;;;;;;;7.35;1.73;;;;;;;16.50;100.00;98829.31;4982062;28;20027;-88
2023/08/03 03:07:08;;;;;;;9.43;2.50;;;;;;;16.55;100.00;98825.84;4976771;28;20022;-89
2023/08/03 03:09:34;;;;;;;5.72;1.60;;;;;;;16.42;100.00;98831.63;4977700;28;20486;-89
2023/08/03 03:11:59;;;;;;;6.50;1.67;;;;;;;16.43;100.00;98839.66;4973388;28;20034;-88
2023/08/03 03:14:25;;;;;;;5.88;1.77;;;;;;;16.45;100.00;98848.44;5000258;28;20143;-89
2023/08/03 03:16:50;;;;;;;7.13;1.80;;;;;;;16.46;100.00;98847.19;4988485;28;20053;-89
2023/08/03 03:19:15;;;;;;;5.28;1.60;;;;;;;16.48;100.00;98846.72;4982836;28;20033;-89
2023/08/03 03:21:41;;;;;;;3.58;2.00;;;;;;;16.48;100.00;98849.53;4983156;28;20145;-88
2023/08/03 03:24:06;;;;;;;5.05;1.42;;;;;;;16.50;100.00;98851.91;4988534;28;20026;-88
2023/08/03 03:26:31;;;;;;;8.05;1.85;;;;;;;16.56;100.00;98861.31;4987868;28;20109;-88
2023/08/03 03:28:57;;;;;;;3.00;1.75;;;;;;;16.57;100.00;98868.53;4987979;28;20022;-88
2023/08/03 03:31:22;;;;;;;10.18;2.08;;;;;;;16.53;100.00;98863.06;4983255;28;20484;-88
2023/08/03 03:33:47;;;;;;;4.88;2.10;;;;;;;16.51;100.00;98874.03;4980580;28;20529;-88
2023/08/03 03:36:13;;;;;;;5.63;2.85;;;;;;;16.48;100.00;98872.13;4985145;28;20038;-88
2023/08/03 03:38:38;;;;;;;8.18;1.73;;;;;;;16.53;100.00;98880.00;4987538;28;20022;-88
2023/08/03 03:41:04;;;;;;;2.55;1.70;;;;;;;16.44;100.00;98875.13;4989301;28;20132;-89
2023/08/03 03:43:29;;;;;;;5.00;2.00;;;;;;;16.53;100.00;98879.19;4982391;28;20065;-88
2023/08/03 03:45:55;;;;;;;5.97;2.03;;;;;;;16.58;100.00;98887.84;4986051;28;20034;-88
2023/08/03 03:48:20;;;;;;;8.02;2.30;;;;;;;16.56;100.00;98879.06;4985917;28;20643;-88
2023/08/03 03:50:46;;;;;;;9.40;2.35;;;;;;;16.59;100.00;98888.63;4987780;28;20030;-87
2023/08/03 03:53:11;;;;;;;6.82;3.25;;;;;;;16.59;100.00;98882.97;4983052;28;20022;-87
2023/08/03 03:55:36;;;;;;;3.67;2.40;;;;;;;16.53;100.00;98893.31;4981085;28;20063;-87
2023/08/03 03:58:02;;;;;;;11.38;3.05;;;;;;;16.45;100.00;98896.44;4988500;28;20117;-88
2023/08/03 04:00:28;;;;;;;8.35;3.72;;;;;;;16.51;100.00;98898.63;4986682;28;20031;-87
2023/08/03 04:02:54;;;;;;;7.47;2.58;;;;;;;16.47;100.00;98898.81;4986364;28;20041;-87
2023/08/03 04:05:19;;;;;;;10.13;4.03;;;;;;;16.48;100.00;98899.59;4988570;28;20026;-87
2023/08/03 04:07:45;;;;;;;6.55;3.60;;;;;;;16.45;100.00;98907.75;4990909;28;20056;-87
2023/08/03 04:10:10;;;;;;;5.68;3.50;;;;;;;16.50;100.00;98914.81;4992347;28;20507;-88
2023/08/03 04:12:36;;;;;;;5.35;3.25;;;;;;;16.42;100.00;98919.97;4989880;28;20101;-88
2023/08/03 04:15:01;;;;;;;8.40;3.58;;;;;;;16.43;100.00;98915.88;4974835;28;20085;-87
2023/08/03 04:17:26;;;;;;;8.20;3.80;;;;;;;16.42;100.00;98922.81;4989016;28;20022;-88
2023/08/03 04:19:52;;;;;;;9.38;3.58;;;;;;;16.41;100.00;98924.03;4987900;28;20057;-87
2023/08/03 04:22:17;;;;;;;6.20;3.13;;;;;;;16.42;100.00;98910.69;4981245;28;20388;-87
2023/08/03 04:24:42;;;;;;;6.90;3.60;;;;;;;16.52;100.00;98922.81;4982784;28;20122;-86
2023/08/03 04:27:08;;;;;;;7.60;3.78;;;;;;;16.54;100.00;98925.97;4979851;28;20069;-87
2023/08/03 04:29:33;;;;;;;5.50;2.85;;;;;;;16.52;100.00;98928.47;4989405;28;20482;-87
2023/08/03 04:31:58;;;;;;;5.47;3.05;;;;;;;16.55;100.00;98933.16;4996892;28;20028;-87
2023/08/03 04:34:24;;;;;;;5.78;2.85;;;;;;;16.53;100.00;98930.03;4995005;28;20025;-87
2023/08/03 04:36:49;;;;;;;7.78;3.10;;;;;;;16.55;100.00;98933.97;5004032;28;20087;-87
2023/08/03 04:39:15;;;;;;;7.28;3.22;;;;;;;16.54;100.00;98932.38;4996854;28;20122;-87
2023/08/03 04:41:40;;;;;;;6.65;2.45;;;;;;;16.49;100.00;98940.72;4997969;28;20032;-86
2023/08/03 04:44:05;;;;;;;10.90;4.35;;;;;;;16.34;100.00;98932.81;4998127;28;20026;-86
2023/08/03 04:46:31;;;;;;;7.28;3.30;;;;;;;16.40;100.00;98947.91;4997419;28;20619;-87
2023/08/03 04:48:57;;;;;;;12.55;3.97;;;;;;;16.38;100.00;98936.28;4990523;28;20555;-87
2023/08/03 04:51:23;;;;;;;7.18;4.30;;;;;;;16.43;100.00;98952.59;5009350;28;20463;-87
2023/08/03 04:53:48;;;;;;;10.05;3.72;;;;;;;16.43;100.00;98955.41;4989882;28;20038;-87
2023/08/03 04:56:14;;;;;;;8.50;3.35;;;;;;;16.49;100.00;98952.00;4989923;28;20030;-87
2023/08/03 04:58:39;;;;;;;9.10;3.90;;;;;;;16.48;100.00;98950.41;4991002;28;20029;-86
2023/08/03 05:01:04;;;;;;;9.65;3.20;;;;;;;16.50;100.00;98959.22;4986502;28;20031;-86
2023/08/03 05:03:30;;;;;;;9.50;4.75;;;;;;;16.58;100.00;98966.16;4987734;28;20065;-87
2023/08/03 05:05:55;;;;;;;8.88;5.07;;;;;;;16.48;100.00;98967.38;4990588;28;20030;-86
2023/08/03 05:08:22;;;;;;;8.55;4.07;;;;;;;16.52;100.00;98965.19;4982922;28;20030;-87
2023/08/03 05:10:49;;;;;;;10.20;4.40;;;;;;;16.47;100.00;98958.09;4983281;28;20050;-86
2023/08/03 05:13:17;;;;;;;9.73;3.88;;;;;;;16.57;100.00;98975.84;4980488;28;20038;-86
2023/08/03 05:15:42;;;;;;;7.57;4.38;;;;;;;16.58;100.00;98983.88;4992293;28;20479;-86
2023/08/03 05:18:08;;;;;;;11.77;4.75;;;;;;;16.54;100.00;98993.75;4978978;28;20026;-86
2023/08/03 05:20:33;;;;;;;7.05;3.88;;;;;;;16.54;100.00;98994.53;4987410;28;20395;-86
2023/08/03 05:22:59;;;;;;;4.97;3.72;;;;;;;16.56;100.00;99002.53;4992033;28;20026;-86
2023/08/03 05:25:24;;;;;;;8.38;4.03;;;;;;;16.56;100.00;99016.66;4989750;28;20415;-86
2023/08/03 05:27:49;;;;;;;8.20;3.67;;;;;;;16.50;100.00;98988.22;4989431;28;20081;-86
2023/08/03 05:30:15;;;;;;;10.68;4.70;;;;;;;16.60;100.00;99011.66;4989705;28;20034;-86
2023/08/03 05:32:40;;;;;;;13.43;5.57;;;;;;;16.60;100.00;99008.84;4989462;28;20030;-86
2023/08/03 05:35:06;;;;;;;8.60;4.32;;;;;;;16.62;100.00;99012.75;4990706;28;20058;-86
2023/08/03 05:37:32;;;;;;;9.98;4.75;;;;;;;16.66;100.00;99013.41;4987542;28;20034;-86
2023/08/03 05:39:57;;;;;;;11.00;4.53;;;;;;;16.73;100.00;99023.63;4989840;28;20065;-86
2023/08/03 05:42:24;;;;;;;10.98;4.80;;;;;;;16.79;100.00;99030.25;4988913;28;20093;-85
2023/08/03 05:44:50;;;;;;;9.50;4.75;;;;;;;16.86;100.00;99027.16;4988354;28;20045;-86
2023/08/03 05:47:17;;;;;;;11.52;5.78;;;;;;;16.89;100.00;99033.13;4988116;28;20064;-86
2023/08/03 05:49:43;;;;;;;13.55;6.05;;;;;;;16.78;100.00;99020.22;4991558;28;20427;-86
2023/08/03 05:52:10;;;;;;;14.50;5.43;;;;;;;16.90;100.00;99034.69;5001337;28;20069;-86
2023/08/03 05:54:35;;;;;;;9.88;4.72;;;;;;;16.86;100.00;99034.84;4988872;28;20046;-86
2023/08/03 05:57:01;;;;;;;7.97;5.30;;;;;;;16.95;100.00;99034.06;4991235;28;20069;-86
2023/08/03 05:59:27;;;;;;;9.90;4.97;;;;;;;16.98;100.00;99036.75;4988104;28;20558;-86
2023/08/03 06:01:52;;;;;;;6.28;3.80;;;;;;;16.99;100.00;99046.84;4987226;28;20019;-86
2023/08/03 06:04:18;;;;;;;9.57;4.90;;;;;;;17.10;100.00;99052.03;4985947;28;20521;-86
2023/08/03 06:06:47;;;;;;;9.93;4.22;;;;;;;17.14;100.00;99052.69;4988424;28;20034;-86
2023/08/03 06:09:13;;;;;;;11.07;4.22;;;;;;;17.22;100.00;99053.97;4993199;28;20551;-86
2023/08/03 06:11:40;;;;;;;7.13;4.40;;;;;;;17.31;100.00;99058.84;4989951;28;20029;-86
2023/08/03 06:14:10;;;;;;;6.82;4.65;;;;;;;17.35;100.00;99061.50;4985591;28;20125;-86
2023/08/03 06:16:35;;;;;;;8.98;4.28;;;;;;;17.38;100.00;99071.88;4988475;28;20394;-86
2023/08/03 06:19:01;;;;;;;6.00;4.22;;;;;;;17.19;100.00;99059.75;4982547;28;20117;-86
2023/08/03 06:21:28;;;;;;;7.50;4.57;;;;;;;17.31;100.00;99083.47;4988595;28;20491;-86
2023/08/03 06:23:57;;;;;;;11.35;4.70;;;;;;;17.25;100.00;99092.59;4988343;28;20145;-87
2023/08/03 06:26:23;;;;;;;11.93;4.47;;;;;;;17.20;100.00;99089.59;4983981;28;20391;-87
2023/08/03 06:28:54;;;;;;;9.48;3.85;;;;;;;17.12;100.00;99097.59;4987481;28;20089;-87
2023/08/03 06:31:23;;;;;;;6.80;3.55;;;;;;;17.10;100.00;99099.28;4986514;28;20022;-87
2023/08/03 06:33:49;;;;;;;5.53;4.10;;;;;;;17.15;100.00;99105.13;4984042;28;20037;-87
2023/08/03 06:36:27;;;;;;;4.70;3.40;;;;;;;17.17;100.00;99102.63;4988177;28;20030;-87
2023/08/03 06:38:54;;;;;;;9.82;4.65;;;;;;;17.31;100.00;99106.91;4989485;28;20179;-87
2023/08/03 06:41:20;;;;;;;7.68;4.65;;;;;;;17.31;100.00;99117.41;4983765;28;20090;-87
2023/08/03 06:43:46;;;;;;;12.93;4.43;;;;;;;17.32;100.00;99114.13;4988028;28;20359;-88
2023/08/03 06:46:12;;;;;;;4.75;3.30;;;;;;;17.30;100.00;99119.47;4980138;28;20030;-87
2023/08/03 06:48:37;;;;;;;10.95;4.22;;;;;;;17.36;100.00;99128.13;4987695;28;20475;-87
2023/08/03 06:51:03;;;;;;;12.43;4.03;;;;;;;17.27;100.00;99134.53;4988491;28;20027;-87
2023/08/03 06:53:30;;;;;;;11.63;4.13;;;;;;;17.29;100.00;99137.69;4990001;28;20037;-87
2023/08/03 06:55:55;;;;;;;7.93;3.20;;;;;;;17.22;100.00;99133.13;4990572;28;20026;-86
2023/08/03 06:58:21;;;;;;;7.68;3.22;;;;;;;17.26;100.00;99145.03;4987153;28;20034;-87
2023/08/03 07:00:46;;;;;;;4.97;2.60;;;;;;;17.22;100.00;99144.44;4981340;28;20142;-87
2023/08/03 07:03:13;;;;;;;7.45;2.78;;;;;;;17.35;100.00;99146.34;4989799;28;20030;-87
2023/08/03 07:05:39;;;;;;;6.72;3.00;;;;;;;17.37;100.00;99155.13;4995428;28;20570;-87
2023/08/03 07:08:04;;;;;;;5.18;2.40;;;;;;;17.43;100.00;99161.75;4984810;28;20040;-86
2023/08/03 07:10:30;;;;;;;4.25;2.53;;;;;;;17.47;100.00;99159.56;4988290;28;20523;-86
2023/08/03 07:12:55;;;;;;;6.43;2.65;;;;;;;17.54;100.00;99170.59;4987988;28;20061;-87
2023/08/03 07:15:21;;;;;;;7.07;2.92;;;;;;;17.56;100.00;99176.59;4987037;28;20569;-87
2023/08/03 07:17:46;;;;;;;5.53;2.75;;;;;;;17.63;100.00;99179.09;4986722;28;20026;-86
2023/08/03 07:20:12;;;;;;;10.23;3.17;;;;;;;17.68;100.00;99186.97;4987652;28;20467;-87
2023/08/03 07:22:38;;;;;;;7.22;2.40;;;;;;;17.70;100.00;99189.34;4988212;28;20350;-86
2023/08/03 07:25:04;;;;;;;4.03;2.28;;;;;;;17.76;100.00;99192.34;4999856;28;20398;-86
2023/08/03 07:27:30;;;;;;;6.53;2.78;;;;;;;17.70;100.00;99195.00;4985513;28;20034;-85
2023/08/03 07:29:55;;;;;;;5.75;2.78;;;;;;;17.77;100.00;99210.88;4985446;28;20026;-87
2023/08/03 07:32:21;;;;;;;6.50;2.95;;;;;;;17.86;100.00;99213.78;4978544;28;20026;-86
2023/08/03 07:34:46;;;;;;;5.85;3.28;;;;;;;17.91;100.00;99204.66;4988595;28;20053;-87
2023/08/03 07:37:11;;;;;;;4.28;3.00;;;;;;;18.00;100.00;99215.97;4986774;28;20108;-86
2023/08/03 07:39:37;;;;;;;13.38;3.78;;;;;;;18.17;100.00;99216.50;4997404;28;20495;-86
2023/08/03 07:42:02;;;;;;;5.22;3.20;;;;;;;18.18;100.00;99218.06;4986558;28;20105;-86
2023/08/03 07:44:28;;;;;;;8.68;3.17;;;;;;;18.28;100.00;99227.34;4991081;28;20125;-86
2023/08/03 07:46:53;;;;;;;5.82;3.03;;;;;;;18.08;100.00;99236.28;4986918;28;20026;-86
2023/08/03 07:49:20;;;;;;;7.07;3.70;;;;;;;18.16;100.00;99242.44;4987474;28;20534;-86
2023/08/03 07:51:47;;;;;;;6.85;2.97;;;;;;;18.19;100.00;99242.28;4992226;28;20105;-86
2023/08/03 07:54:13;;;;;;;6.18;2.72;;;;;;;18.51;100.00;99233.63;4988963;28;20110;-86
2023/08/03 07:56:38;;;;;;;11.35;4.00;;;;;;;18.60;100.00;99244.97;4989484;28;20113;-86
2023/08/03 07:59:06;;;;;;;9.48;3.58;;;;;;;18.59;100.00;99252.66;4982928;28;20035;-86
2023/08/03 08:01:32;;;;;;;4.90;3.40;;;;;;;18.57;100.00;99260.06;4982205;28;20031;-86
2023/08/03 08:03:57;;;;;;;5.65;3.40;;;;;;;18.37;100.00;99258.50;4987572;28;20018;-86
2023/08/03 08:06:23;;;;;;;5.30;3.58;;;;;;;18.23;100.00;99253.44;4987164;28;20033;-85
2023/08/03 08:08:50;;;;;;;7.40;3.50;;;;;;;18.50;100.00;99258.34;4983141;28;20184;-87
2023/08/03 08:11:17;;;;;;;9.80;4.45;;;;;;;18.69;100.00;99267.63;4986629;28;20018;-86
2023/08/03 08:13:43;;;;;;;6.63;3.30;;;;;;;18.65;100.00;99269.84;4994915;28;20051;-86
2023/08/03 08:16:11;;;;;;;6.32;3.38;;;;;;;18.58;100.00;99278.66;4987022;28;20034;-86
2023/08/03 08:18:37;;;;;;;7.97;3.20;;;;;;;18.42;100.00;99280.53;4984544;28;20036;-86
2023/08/03 08:21:05;;;;;;;4.35;3.90;;;;;;;18.33;100.00;99294.69;4986593;28;20031;-86
2023/08/03 08:23:31;;;;;;;7.55;3.13;;;;;;;18.26;100.00;99292.97;4985090;28;20430;-85
2023/08/03 08:25:57;;;;;;;5.80;3.33;;;;;;;18.20;100.00;99302.56;4983584;28;20022;-86
2023/08/03 08:28:23;;;;;;;5.90;3.15;;;;;;;18.24;100.00;99306.03;4986981;28;20117;-86
2023/08/03 08:30:50;;;;;;;6.18;2.75;;;;;;;18.26;100.00;99304.28;4986109;28;20136;-86
2023/08/03 08:33:17;;;;;;;6.13;3.40;;;;;;;18.47;100.00;99308.25;4988309;28;20037;-86
2023/08/03 08:35:44;;;;;;;5.43;3.00;;;;;;;18.69;100.00;99324.31;4985935;28;20113;-86
2023/08/03 08:38:11;;;;;;;4.38;2.70;;;;;;;18.91;100.00;99324.19;4986478;28;20038;-85
2023/08/03 08:40:37;;;;;;;3.25;2.08;;;;;;;19.01;100.00;99331.41;4984035;28;20031;-86
2023/08/03 08:43:03;;;;;;;5.97;2.60;;;;;;;19.05;100.00;99328.44;4992306;28;20474;-86
2023/08/03 08:45:37;;;;;;;2.90;2.22;;;;;;;18.79;100.00;99330.81;4989351;28;20126;-86
2023/08/03 08:48:03;;;;;;;6.70;2.38;;;;;;;18.94;100.00;99333.81;4983900;28;20037;-86
2023/08/03 08:50:29;;;;;;;5.93;2.10;;;;;;;19.27;100.00;99346.06;4989962;28;20026;-86
2023/08/03 08:52:55;;;;;;;9.68;2.20;;;;;;;19.40;100.00;99347.94;4988586;28;20400;-86
2023/08/03 08:55:27;;;;;;;4.78;3.05;;;;;;;19.37;100.00;99354.53;4988756;28;20037;-86
2023/08/03 08:57:54;;;;;;;3.05;1.80;;;;;;;19.04;100.00;99361.69;4990040;28;20062;-86
2023/08/03 09:00:20;;;;;;;11.25;2.05;;;;;;;19.00;100.00;99357.44;4988530;28;20034;-86
2023/08/03 09:02:47;;;;;;;3.17;1.75;;;;;;;19.05;100.00;99377.41;4991818;28;20610;-86
2023/08/03 09:05:19;;;;;;;3.60;1.60;;;;;;;18.96;100.00;99368.13;4991148;28;20486;-86
2023/08/03 09:07:45;;;;;;;2.60;2.15;;;;;;;19.34;100.00;99372.53;4986163;28;20542;-86
2023/08/03 09:10:11;;;;;;;3.55;2.10;;;;;;;19.22;100.00;99360.84;4985195;28;20522;-86
2023/08/03 09:12:42;;;;;;;3.13;1.67;;;;;;;19.12;100.00;99396.19;4990894;28;20041;-86
2023/08/03 09:15:08;;;;;;;9.52;2.17;;;;;;;18.97;100.00;99389.56;4985857;28;20126;-86
2023/08/03 09:17:33;;;;;;;2.88;2.08;;;;;;;19.09;100.00;99402.78;5005577;28;20642;-86
2023/08/03 09:19:59;;;;;;;7.57;2.38;;;;;;;19.22;100.00;99403.41;4991916;28;20903;-86
2023/08/03 09:22:25;;;;;;;2.80;1.65;;;;;;;19.32;100.00;99404.19;4989132;28;20030;-86
2023/08/03 09:25:09;;;;;;;3.40;1.38;;;;;;;19.39;100.00;99394.56;4990882;28;20038;-86
2023/08/03 09:27:36;;;;;;;3.20;1.70;;;;;;;19.82;100.00;99418.19;4983177;28;20487;-86
2023/08/03 09:30:04;;;;;;;3.28;1.40;;;;;;;19.59;100.00;99428.91;4989117;28;20118;-87
2023/08/03 09:32:34;;;;;;;8.90;2.22;;;;;;;19.54;100.00;99443.72;4989849;28;20546;-87
2023/08/03 09:35:02;;;;;;;8.25;2.53;;;;;;;19.61;100.00;99434.13;4983154;28;20406;-86
2023/08/03 09:37:35;;;;;;;6.65;1.30;;;;;;;19.72;100.00;99445.00;4980596;28;20075;-87
2023/08/03 09:40:04;;;;;;;5.13;1.65;;;;;;;19.75;100.00;99444.03;4986096;28;20030;-86
2023/08/03 09:42:31;;;;;;;3.10;1.17;;;;;;;19.70;100.00;99454.78;4980672;28;20035;-86
2023/08/03 09:44:59;;;;;;;3.70;1.50;;;;;;;19.52;100.00;99449.09;4985554;28;20072;-86
2023/08/03 09:47:25;;;;;;;6.28;1.55;;;;;;;19.61;100.00;99454.00;4978853;28;20030;-87
2023/08/03 09:49:52;;;;;;;6.40;2.17;;;;;;;19.63;100.00;99455.09;4983555;28;20040;-87
2023/08/03 09:52:22;;;;;;;3.85;1.75;;;;;;;19.81;100.00;99468.47;4986656;28;20479;-86
2023/08/03 09:54:58;;;;;;;4.20;1.20;;;;;;;20.20;100.00;99473.59;4989255;28;20030;-86
2023/08/03 09:57:27;;;;;;;4.75;1.55;;;;;;;20.14;100.00;99467.00;4990521;28;20384;-87
2023/08/03 09:59:58;;;;;;;2.42;1.55;;;;;;;20.25;100.00;99479.41;4986952;28;20050;-87
2023/08/03 10:02:28;;;;;;;3.83;1.55;;;;;;;20.37;100.00;99480.47;4988199;28;20030;-87
2023/08/03 10:05:00;;;;;;;5.30;2.25;;;;;;;20.50;100.00;99483.09;4988854;28;20394;-87
2023/08/03 10:07:32;;;;;;;3.70;1.60;;;;;;;20.30;100.00;99492.16;4988383;28;20118;-89
2023/08/03 10:10:01;;;;;;;5.45;1.98;;;;;;;20.17;100.00;99500.88;4986807;28;20394;-86
2023/08/03 10:12:43;;;;;;;4.47;1.92;;;;;;;20.17;100.00;99500.88;4994142;28;20474;-86
2023/08/03 10:15:10;;;;;;;3.55;1.38;;;;;;;19.96;100.00;99508.34;4988716;28;20566;-86
2023/08/03 10:17:38;;;;;;;8.90;1.90;;;;;;;20.02;100.00;99500.78;4988374;28;20124;-86
2023/08/03 10:20:04;;;;;;;7.22;2.25;;;;;;;20.17;100.00;99517.16;4988366;28;20026;-86
2023/08/03 10:22:30;;;;;;;6.65;1.88;;;;;;;20.01;100.00;99504.91;5003564;28;20482;-86
2023/08/03 10:25:18;;;;;;;4.97;1.80;;;;;;;20.02;100.00;99522.72;4987823;28;20030;-86
2023/08/03 10:28:14;;;;;;;5.38;1.65;;;;;;;20.08;100.00;99526.50;4990848;28;20018;-87
2023/08/03 10:31:11;;;;;;;3.58;1.50;;;;;;;19.96;100.00;99524.63;4987592;28;20513;-87
2023/08/03 10:33:51;;;;;;;7.35;1.70;;;;;;;20.07;100.00;99537.06;4984294;28;20058;-86
2023/08/03 10:36:26;;;;;;;9.32;2.50;;;;;;;20.08;100.00;99538.63;4988255;28;20368;-87
2023/08/03 10:38:52;;;;;;;4.47;3.03;;;;;;;19.92;100.00;99541.81;4986325;28;20134;-86
2023/08/03 10:41:26;;;;;;;6.55;2.10;;;;;;;19.79;100.00;99541.97;4988392;28;20030;-86
2023/08/03 10:44:06;;;;;;;7.70;1.92;;;;;;;19.84;100.00;99554.78;4986804;28;20065;-87
2023/08/03 10:46:37;;;;;;;9.57;2.53;;;;;;;19.70;100.00;99559.81;4989959;28;20044;-86
2023/08/03 10:49:23;;;;;;;7.10;1.95;;;;;;;20.07;100.00;99548.44;4984733;28;20053;-86
2023/08/03 10:52:18;;;;;;;3.95;1.73;;;;;;;20.16;100.00;99561.03;4973593;28;20039;-87
2023/08/03 10:54:44;;;;;;;3.33;1.40;;;;;;;20.01;100.00;99561.69;4969667;28;20082;-87
2023/08/03 10:57:14;;;;;;;3.80;1.40;;;;;;;20.01;100.00;99561.69;4972100;28;20035;-86
2023/08/03 10:59:41;;;;;;;4.70;1.85;;;;;;;19.85;100.00;99573.38;4968271;28;20023;-86
2023/08/03 11:02:14;;;;;;;3.78;1.08;;;;;;;19.45;100.00;99588.47;4978473;28;20095;-86
2023/08/03 11:04:40;;;;;;;6.47;1.50;;;;;;;19.05;100.00;99592.16;4975816;28;20037;-88
2023/08/03 11:07:10;;;;;;;6.38;1.55;;;;;;;19.14;100.00;99595.00;4973993;28;20041;-88
2023/08/03 11:09:36;;;;;;;7.05;1.30;;;;;;;19.08;100.00;99594.06;4977803;28;20539;-89
2023/08/03 11:12:03;;;;;;;7.93;1.50;;;;;;;19.36;100.00;99591.31;4984989;28;20047;-88
2023/08/03 11:14:29;;;;;;;4.93;1.40;;;;;;;19.41;100.00;99588.59;4987719;28;20462;-88
2023/08/03 11:16:54;;;;;;;2.80;1.48;;;;;;;19.38;100.00;99592.41;4988029;28;20022;-89
2023/08/03 11:19:22;;;;;;;3.33;1.30;;;;;;;19.26;100.00;99581.97;4987563;28;20030;-88
2023/08/03 11:21:48;;;;;;;6.68;1.73;;;;;;;19.30;100.00;99599.63;4987869;28;20027;-88
2023/08/03 11:24:13;;;;;;;1.85;1.30;;;;;;;19.38;100.00;99606.59;4983113;28;20036;-88